ADDS METAR Data INFO
IDs: Format: Raw Decoded Include TAF

Data at: 0545 UTC 22 Nov 2017

KGCC 220453Z AUTO 21012KT 10SM CLR 05/M03 A3012 RMK AO2 SLP220 T00501028
KGCC 220353Z AUTO 21014KT 10SM CLR 05/M03 A3013 RMK AO2 SLP226 T00501028
KGCC 220253Z AUTO 17012KT 10SM CLR 03/M02 A3014 RMK AO2 SLP233 T00331022 58007
KGCC 220153Z AUTO 17009KT 10SM CLR 03/M03 A3015 RMK AO2 SLP237 T00281033
KGCC 220053Z AUTO 18008KT 10SM CLR M02/M05 A3017 RMK AO2 SLP253 T10221050
KGCC 212353Z AUTO 16005KT 10SM CLR M02/M06 A3017 RMK AO2 SLP254 T10221056 10067 21028 58015
KGCC 212253Z AUTO 22004KT 10SM CLR 06/M03 A3020 RMK AO2 SLP250 T00561033
KGCC 212153Z AUTO 22008KT 10SM CLR 07/M03 A3020 RMK AO2 SLP249 T00671033
KGCC 212053Z AUTO 23005KT 10SM CLR 06/M03 A3021 RMK AO2 SLP254 T00561033 56023
KGCC 211953Z AUTO 23009KT 10SM CLR 04/M03 A3023 RMK AO2 SLP261 T00441033
KGCC 211853Z AUTO 25009KT 10SM CLR 02/M04 A3026 RMK AO2 SLP273 T00171044
KGCC 211753Z AUTO 22010KT 10SM BKN040 M01/M06 A3029 RMK AO2 SLP283 T10061056 11006 21044 50004
KGCC 211729Z AUTO 23007KT 10SM SCT018 OVC041 M01/M06 A3030 RMK AO2 T10111056
KGCC 211653Z AUTO 25006KT 10SM SCT017 BKN023 M02/M06 A3031 RMK AO2 SLP287 T10171056
KGCC 211553Z AUTO 25005KT 10SM OVC025 M03/M06 A3029 RMK AO2 SLP283 T10281061
KGCC 211453Z AUTO 28003KT 10SM OVC026 M03/M07 A3028 RMK AO2 SLP276 T10331067 52022
KGCC 211353Z AUTO 32003KT 10SM FEW015 OVC028 M04/M07 A3026 RMK AO2 SLP268 T10391067
KGCC 211300Z AUTO 34007KT 10SM FEW011 OVC029 M04/M06 A3023 RMK AO2 T10391061
KGCC 211253Z AUTO 33006KT 10SM FEW011 OVC030 M04/M06 A3022 RMK AO2 SLP256 T10391061
KGCC 211153Z AUTO 36007KT 10SM BKN035 OVC046 M04/M06 A3020 RMK AO2 SLP251 T10441061 10011 21050 51024
KGCC 211057Z AUTO 35007KT 8SM SCT008 OVC036 M04/M06 A3017 RMK AO2 T10441056
KGCC 211053Z AUTO 35008KT 9SM BKN010 OVC036 M04/M06 A3018 RMK AO2 SLP233 T10441056
KGCC 211036Z AUTO 35009KT 10SM BKN010 OVC034 M04/M06 A3017 RMK AO2 CIG 007V014 T10441056
KGCC 210953Z AUTO 02006KT 7SM OVC034 M04/M06 A3012 RMK AO2 SLP213 T10441056
KGCC 210943Z AUTO 01009KT 4SM BR FEW020 OVC034 M04/M06 A3012 RMK AO2 T10441056
KGCC 210932Z AUTO 01013KT 2SM BR SCT020 SCT029 OVC039 M04/M06 A3012 RMK AO2 T10441056
KGCC 210926Z AUTO 01018KT 1 3/4SM BR SCT020 BKN029 OVC039 M04/M06 A3011 RMK AO2 T10441056
KGCC 210911Z AUTO 36015KT 2 1/2SM BR OVC029 M04/M06 A3009 RMK AO2 T10391056
KGCC 210903Z AUTO 36015KT 3SM BR BKN029 OVC039 M04/M05 A3009 RMK AO2 PRESRR T10391050
KGCC 210853Z AUTO 36016KT 4SM BR SCT027 OVC039 M03/M05 A3007 RMK AO2 PRESRR SLP191 T10331050 53017
KGCC 210848Z AUTO 36015KT 6SM BR SCT025 OVC039 M03/M05 A3006 RMK AO2
KGCC 210825Z AUTO 36015KT 3SM BR FEW008 BKN019 OVC025 M03/M04 A3004 RMK AO2 T10281044
KGCC 210818Z AUTO 01017KT 3SM BR SCT008 BKN013 OVC021 M03/M04 A3003 RMK AO2 T10281044
KGCC 210816Z AUTO 01017KT 2 1/2SM BR SCT008 OVC018 M03/M04 A3004 RMK AO2 T10281039
KGCC 210753Z AUTO 01013KT 2 1/2SM BR OVC008 M02/M03 A3002 RMK AO2 CIG 005V011 SLP169 T10221033
KGCC 210751Z AUTO 01013KT 2 1/2SM BR OVC006 M02/M03 A3002 RMK AO2 CIG 005V011
KGCC 210653Z AUTO 36013KT 10SM OVC006 M01/M02 A2995 RMK AO2 SLP143 T10061017 401391006
KGCC 210630Z AUTO 35014KT 10SM BKN005 OVC012 00/M01 A2993 RMK AO2 PRESRR T00001011
KGCC 210620Z AUTO 34011KT 10SM BKN007 OVC012 01/M01 A2992 RMK AO2 CIG 005V010 T00061006
KGCC 210558Z AUTO 34011KT 10SM BKN014 BKN023 OVC085 01/M01 A2989 RMK AO2 T00111006
KGCC 210553Z AUTO 34011KT 10SM SCT014 BKN030 OVC085 01/M01 A2989 RMK AO2 PRESRR SLP120 T00111006 10078 20011 53035
KGCC 210453Z AUTO 36009KT 10SM BKN050 BKN075 OVC095 03/M02 A2983 RMK AO2 SLP094 T00331017
KGCC 210353Z AUTO 31004KT 10SM SCT080 OVC100 03/M04 A2977 RMK AO2 SLP082 T00331039
KGCC 210253Z AUTO 36007KT 10SM SCT095 BKN120 05/M03 A2977 RMK AO2 SLP082 T00501033 53015
KGCC 210153Z AUTO 01004KT 10SM BKN110 07/M04 A2974 RMK AO2 SLP067 T00721039
KGCC 210053Z AUTO 24010KT 10SM BKN090 07/M04 A2972 RMK AO2 SLP058 T00721039
KGCC 202353Z AUTO 22008KT 10SM BKN110 07/M04 A2972 RMK AO2 SLP062 T00671044 10139 20017 51007
KGCC 202253Z AUTO 00000KT 10SM CLR 11/M06 A2972 RMK AO2 SLP051 T01111056
KGCC 202153Z AUTO 25004KT 10SM CLR 12/M06 A2971 RMK AO2 SLP048 T01171056
KGCC 202053Z AUTO 31006KT 10SM CLR 13/M07 A2970 RMK AO2 SLP041 T01281067 53004
KGCC 201953Z AUTO 31010KT 10SM CLR 13/M08 A2969 RMK AO2 SLP038 T01331078
KGCC 201853Z AUTO 30010KT 10SM CLR 13/M08 A2969 RMK AO2 SLP038 T01331083
KGCC 201753Z AUTO 24018KT 10SM CLR 12/M09 A2969 RMK AO2 PRESRR SLP039 T01221094 10128 20061 53022